createdAt,value
2019-04-06T00:00:01.485Z,95920.55
2019-04-06T00:01:49.237Z,95925.55
2019-04-06T00:03:25.318Z,95918.16
2019-04-06T00:05:01.783Z,95918.59
2019-04-06T00:06:43.035Z,95919.36
2019-04-06T00:08:18.470Z,95915.45
2019-04-06T00:09:54.572Z,95917.45
2019-04-06T00:11:30.493Z,95912.75
2019-04-06T00:13:06.372Z,95918.94
2019-04-06T00:14:42.315Z,95912.31
2019-04-06T00:16:18.625Z,95910.66
2019-04-06T00:17:54.498Z,95910.03
2019-04-06T00:19:30.875Z,95909.91
2019-04-06T00:21:06.640Z,95904.75
2019-04-06T00:22:45.650Z,95905.07
2019-04-06T00:24:22.833Z,95902.36
2019-04-06T00:25:58.596Z,95908.81
2019-04-06T00:27:35.170Z,95907.30
2019-04-06T00:29:10.936Z,95905.07
2019-04-06T00:31:13.272Z,95907.03
2019-04-06T00:33:07.843Z,95901.59
2019-04-06T00:34:43.928Z,95907.05
2019-04-06T00:36:20.365Z,95904.61
2019-04-06T00:37:56.567Z,95907.48
2019-04-06T00:39:32.232Z,95909.77
2019-04-06T00:41:09.701Z,95902.65
2019-04-06T00:42:45.530Z,95902.05
2019-04-06T00:44:24.130Z,95906.28
2019-04-06T00:46:00.729Z,95904.93
2019-04-06T00:47:38.185Z,95902.53
2019-04-06T00:49:17.523Z,95900.91
2019-04-06T00:50:53.450Z,95899.71
2019-04-06T00:52:29.684Z,95898.19
2019-04-06T00:54:05.911Z,95903.19
2019-04-06T00:55:42.013Z,95896.83
2019-04-06T00:57:17.658Z,95898.03
2019-04-06T00:58:53.971Z,95897.43
2019-04-06T01:00:29.666Z,95903.08
2019-04-06T01:02:06.732Z,95901.84
2019-04-06T01:03:44.128Z,95897.77
2019-04-06T01:05:20.448Z,95897.50
2019-04-06T01:06:57.097Z,95903.53
2019-04-06T01:08:35.086Z,95893.70
2019-04-06T01:10:11.245Z,95894.77
2019-04-06T01:11:47.113Z,95894.17
2019-04-06T01:13:22.816Z,95890.85
2019-04-06T01:15:00.073Z,95893.24
2019-04-06T01:16:35.990Z,95892.65
2019-04-06T01:18:12.050Z,95895.22
2019-04-06T01:19:47.976Z,95899.13
2019-04-06T01:21:23.788Z,95902.75
2019-04-06T01:22:59.756Z,95893.56
2019-04-06T01:24:35.915Z,95892.20
2019-04-06T01:26:14.829Z,95889.49
2019-04-06T01:27:54.681Z,95894.60
2019-04-06T01:29:30.491Z,95896.73
2019-04-06T01:31:06.256Z,95899.78
2019-04-06T01:32:42.164Z,95897.82
2019-04-06T01:34:18.342Z,95896.30
2019-04-06T01:35:54.199Z,95886.20
2019-04-06T01:37:30.119Z,95894.34
2019-04-06T01:39:06.600Z,95888.43
2019-04-06T01:40:42.526Z,95890.39
2019-04-06T01:42:19.206Z,95888.43
2019-04-06T01:43:54.988Z,95900.81
2019-04-06T01:45:33.740Z,95902.17
2019-04-06T01:47:09.373Z,95894.94
2019-04-06T01:48:50.928Z,95893.15
2019-04-06T01:50:26.557Z,95892.66
2019-04-06T01:52:02.368Z,95896.14
2019-04-06T01:53:38.352Z,95895.55
2019-04-06T01:55:14.667Z,95893.42
2019-04-06T01:56:51.095Z,95892.50
2019-04-06T01:58:27.208Z,95895.11
2019-04-06T02:00:04.434Z,95886.36
2019-04-06T02:01:53.954Z,95885.34
2019-04-06T02:03:30.682Z,95891.38
2019-04-06T02:05:07.647Z,95885.52
2019-04-06T02:06:43.607Z,95889.27
2019-04-06T02:08:19.551Z,95882.95
2019-04-06T02:09:55.211Z,95886.00
2019-04-06T02:11:31.989Z,95883.44
2019-04-06T02:13:08.394Z,95885.40
2019-04-06T02:14:44.202Z,95878.90
2019-04-06T02:16:20.964Z,95888.56
2019-04-06T02:17:57.040Z,95880.41
2019-04-06T02:19:33.638Z,95881.17
2019-04-06T02:21:10.070Z,95885.89
2019-04-06T02:22:46.284Z,95884.66
2019-04-06T02:24:22.257Z,95882.58
2019-04-06T02:25:58.539Z,95886.38
2019-04-06T02:27:35.416Z,95878.06
2019-04-06T02:29:11.943Z,95879.27
2019-04-06T02:31:15.108Z,95879.42
2019-04-06T02:33:13.737Z,95882.30
2019-04-06T02:35:26.121Z,95878.23
2019-04-06T02:37:12.717Z,95873.23
2019-04-06T02:39:05.136Z,95870.23
2019-04-06T02:40:59.997Z,95870.99
2019-04-06T02:42:48.878Z,95866.01
2019-04-06T02:44:24.683Z,95871.00
2019-04-06T02:46:01.615Z,95867.09
2019-04-06T02:47:38.065Z,95867.41
2019-04-06T02:49:14.302Z,95873.00
2019-04-06T02:50:50.322Z,95870.92
2019-04-06T02:52:26.093Z,95866.69
2019-04-06T02:54:02.248Z,95867.01
2019-04-06T02:55:39.455Z,95863.66
2019-04-06T02:57:15.627Z,95861.27
2019-04-06T02:58:51.629Z,95857.95
2019-04-06T03:00:27.638Z,95858.42
2019-04-06T03:02:05.515Z,95856.63
2019-04-06T03:03:41.413Z,95852.39
2019-04-06T03:05:17.555Z,95850.75
2019-04-06T03:06:53.357Z,95849.39
2019-04-06T03:08:30.599Z,95854.83
2019-04-06T03:10:07.657Z,95855.14
2019-04-06T03:11:44.702Z,95848.47
2019-04-06T03:13:23.428Z,95848.31
2019-04-06T03:14:59.353Z,95846.36
2019-04-06T03:16:35.385Z,95845.16
2019-04-06T03:18:13.743Z,95841.08
2019-04-06T03:19:51.137Z,95841.23
2019-04-06T03:21:27.041Z,95844.39
2019-04-06T03:23:02.626Z,95843.80
2019-04-06T03:24:38.497Z,95839.12
2019-04-06T03:26:14.430Z,95837.32
2019-04-06T03:27:50.356Z,95841.39
2019-04-06T03:29:26.196Z,95841.23
2019-04-06T03:31:03.554Z,95841.39
2019-04-06T03:32:39.693Z,95838.08
2019-04-06T03:34:20.662Z,95838.52
2019-04-06T03:35:54.154Z,95839.12
2019-04-06T03:37:29.886Z,95839.72
2019-04-06T03:39:06.977Z,95830.20
2019-04-06T03:40:42.703Z,95836.41
2019-04-06T03:42:18.764Z,95835.64
2019-04-06T03:43:54.661Z,95840.48
2019-04-06T03:45:30.981Z,95842.59
2019-04-06T03:47:06.588Z,95837.60
2019-04-06T03:48:42.310Z,95837.76
2019-04-06T03:50:19.060Z,95832.77
2019-04-06T03:51:55.273Z,95833.36
2019-04-06T03:53:31.021Z,95833.97
2019-04-06T03:55:08.393Z,95828.41
2019-04-06T03:56:44.521Z,95829.61
2019-04-06T03:58:20.922Z,95823.25
2019-04-06T03:59:56.579Z,95829.01
2019-04-06T04:01:32.350Z,95836.56
2019-04-06T04:03:09.487Z,95834.44
2019-04-06T04:04:45.344Z,95835.64
2019-04-06T04:06:21.402Z,95839.28
2019-04-06T04:07:57.739Z,95842.44
2019-04-06T04:09:33.499Z,95843.03
2019-04-06T04:11:09.203Z,95842.44
2019-04-06T04:12:44.861Z,95843.48
2019-04-06T04:14:21.147Z,95846.95
2019-04-06T04:15:57.910Z,95850.11
2019-04-06T04:17:33.837Z,95844.84
2019-04-06T04:19:09.674Z,95846.20
2019-04-06T04:20:53.226Z,95844.23
2019-04-06T04:22:28.293Z,95845.44
2019-04-06T04:24:04.241Z,95849.36
2019-04-06T04:25:40.323Z,95845.59
2019-04-06T04:27:27.659Z,95849.99
2019-04-06T04:28:54.380Z,95846.52
2019-04-06T04:30:33.374Z,95845.00
2019-04-06T04:32:08.090Z,95850.27
2019-04-06T04:33:43.706Z,95855.87
2019-04-06T04:35:20.240Z,95865.98
2019-04-06T04:37:00.593Z,95854.95
2019-04-06T04:38:37.627Z,95854.95
2019-04-06T04:40:39.548Z,95854.16
2019-04-06T04:42:19.642Z,95859.47
2019-04-06T04:43:57.664Z,95858.55
2019-04-06T04:45:34.121Z,95868.66
2019-04-06T04:47:12.710Z,95865.18
2019-04-06T04:48:58.442Z,95872.30
2019-04-06T04:50:34.506Z,95870.77
2019-04-06T04:52:15.256Z,95871.09
2019-04-06T04:53:51.482Z,95880.89
2019-04-06T04:55:27.424Z,95885.13
2019-04-06T04:57:04.911Z,95891.48
2019-04-06T04:58:40.649Z,95890.56
2019-04-06T05:00:19.996Z,95898.54
2019-04-06T05:01:55.940Z,95896.14
2019-04-06T05:03:32.113Z,95901.41
2019-04-06T05:05:09.540Z,95906.70
2019-04-06T05:06:45.727Z,95915.16
2019-04-06T05:08:21.338Z,95912.28
2019-04-06T05:09:57.339Z,95912.28
2019-04-06T05:11:33.059Z,95919.41
2019-04-06T05:13:09.205Z,95919.25
2019-04-06T05:15:07.393Z,95925.45
2019-04-06T05:16:43.005Z,95925.17
2019-04-06T05:18:18.995Z,95931.33
2019-04-06T05:19:54.921Z,95930.45
2019-04-06T05:21:31.358Z,95928.64
2019-04-06T05:23:07.627Z,95932.88
2019-04-06T05:24:43.202Z,95928.20
2019-04-06T05:26:19.077Z,95930.77
2019-04-06T05:27:55.554Z,95929.25
2019-04-06T05:31:25.911Z,95935.17
2019-04-06T05:33:01.585Z,95932.16
2019-04-06T05:34:46.849Z,95928.37
2019-04-06T05:36:27.351Z,95927.78
2019-04-06T05:38:05.597Z,95929.46
2019-04-06T05:39:42.241Z,95928.27
2019-04-06T05:41:17.819Z,95935.53
2019-04-06T05:42:53.117Z,95935.38
2019-04-06T05:44:28.638Z,95935.22
2019-04-06T05:46:04.330Z,95927.98
2019-04-06T05:47:39.995Z,95928.90
2019-04-06T05:49:18.031Z,95933.59
2019-04-06T05:50:53.403Z,95928.63
2019-04-06T05:52:28.795Z,95925.91
2019-04-06T05:54:05.081Z,95926.83
2019-04-06T05:55:41.197Z,95928.03
2019-04-06T05:57:17.060Z,95928.34
2019-04-06T05:58:52.914Z,95930.20
2019-04-06T06:00:28.890Z,95927.19
2019-04-06T06:02:04.541Z,95930.03
2019-04-06T06:03:44.460Z,95922.64
2019-04-06T06:05:20.991Z,95922.67
2019-04-06T06:06:56.451Z,95922.36
2019-04-06T06:08:32.393Z,95921.16
2019-04-06T06:10:09.839Z,95922.70
2019-04-06T06:11:46.293Z,95919.55
2019-04-06T06:13:24.446Z,95919.70
2019-04-06T06:15:04.744Z,95917.15
2019-04-06T06:16:40.970Z,95914.75
2019-04-06T06:18:25.679Z,95910.38
2019-04-06T06:19:55.449Z,95903.14
2019-04-06T06:21:31.499Z,95898.45
2019-04-06T06:23:06.957Z,95902.09
2019-04-06T06:24:43.122Z,95900.00
2019-04-06T06:26:18.592Z,95893.67
2019-04-06T06:27:55.011Z,95888.96
2019-04-06T06:29:38.219Z,95890.95
2019-04-06T06:31:13.997Z,95889.30
2019-04-06T06:32:53.014Z,95887.81
2019-04-06T06:34:31.348Z,95890.21
2019-04-06T06:36:08.724Z,95884.64
2019-04-06T06:37:44.540Z,95892.22
2019-04-06T06:39:21.678Z,95887.70
2019-04-06T06:40:57.552Z,95883.77
2019-04-06T06:42:32.926Z,95884.70
2019-04-06T06:44:08.451Z,95878.97
2019-04-06T06:45:43.887Z,95877.00
2019-04-06T06:47:19.297Z,95869.58
2019-04-06T06:48:54.777Z,95874.87
2019-04-06T06:50:34.743Z,95876.41
2019-04-06T06:52:20.919Z,95878.84
2019-04-06T06:53:58.448Z,95875.36
2019-04-06T06:55:34.265Z,95869.45
2019-04-06T06:57:09.994Z,95869.45
2019-04-06T06:58:45.663Z,95870.81
2019-04-06T07:00:21.019Z,95872.19
2019-04-06T07:01:57.506Z,95868.42
2019-04-06T07:03:33.296Z,95869.31
2019-04-06T07:05:12.481Z,95866.59
2019-04-06T07:06:48.832Z,95870.84
2019-04-06T07:08:26.513Z,95867.34
2019-04-06T07:10:05.757Z,95867.64
2019-04-06T07:11:39.369Z,95866.75
2019-04-06T07:13:14.870Z,95866.43
2019-04-06T07:14:55.756Z,95858.86
2019-04-06T07:16:31.373Z,95859.77
2019-04-06T07:18:10.122Z,95856.00
2019-04-06T07:19:45.658Z,95857.95
2019-04-06T07:21:21.221Z,95855.38
2019-04-06T07:23:04.293Z,95851.60
2019-04-06T07:24:42.712Z,95853.23
2019-04-06T07:26:19.358Z,95853.39
2019-04-06T07:28:11.291Z,95845.22
2019-04-06T07:29:50.223Z,95844.61
2019-04-06T07:31:30.669Z,95843.70
2019-04-06T07:33:06.513Z,95849.28
2019-04-06T07:34:49.703Z,95849.28
2019-04-06T07:36:26.712Z,95854.58
2019-04-06T07:38:02.483Z,95846.09
2019-04-06T07:39:41.087Z,95841.13
2019-04-06T07:41:19.878Z,95847.95
2019-04-06T07:42:55.406Z,95843.98
2019-04-06T07:44:32.723Z,95842.61
2019-04-06T07:46:08.686Z,95838.22
2019-04-06T07:47:48.858Z,95834.39
2019-04-06T07:49:27.425Z,95835.45
2019-04-06T07:51:08.186Z,95828.03
2019-04-06T07:52:46.857Z,95829.09
2019-04-06T07:54:28.227Z,95830.86
2019-04-06T07:56:08.865Z,95823.18
2019-04-06T07:57:44.719Z,95831.77
2019-04-06T07:59:21.943Z,95834.04
2019-04-06T08:01:06.719Z,95831.57
2019-04-06T08:02:49.308Z,95829.73
2019-04-06T08:04:31.919Z,95832.22
2019-04-06T08:06:12.716Z,95830.48
2019-04-06T08:07:49.872Z,95828.79
2019-04-06T08:09:28.371Z,95825.89
2019-04-06T08:11:08.584Z,95829.94
2019-04-06T08:12:46.972Z,95818.47
2019-04-06T08:14:25.533Z,95819.33
2019-04-06T08:16:10.518Z,95816.28
2019-04-06T08:17:55.200Z,95817.66
2019-04-06T08:19:26.661Z,95812.80
2019-04-06T08:21:03.892Z,95814.91
2019-04-06T08:22:45.783Z,95812.05
2019-04-06T08:24:21.167Z,95805.41
2019-04-06T08:25:58.650Z,95811.86
2019-04-06T08:27:34.775Z,95804.31
2019-04-06T08:29:11.890Z,95807.92
2019-04-06T08:30:48.200Z,95805.69
2019-04-06T08:32:25.136Z,95803.22
2019-04-06T08:34:01.012Z,95794.97
2019-04-06T08:35:41.757Z,95793.26
2019-04-06T08:37:18.068Z,95789.59
2019-04-06T08:38:53.777Z,95779.92
2019-04-06T08:40:31.618Z,95780.11
2019-04-06T08:42:07.675Z,95771.95
2019-04-06T08:43:44.695Z,95770.13
2019-04-06T08:45:20.474Z,95772.45
2019-04-06T08:46:55.896Z,95774.10
2019-04-06T08:48:32.581Z,95768.38
2019-04-06T08:50:08.610Z,95768.48
2019-04-06T08:51:48.805Z,95769.31
2019-04-06T08:53:25.291Z,95770.64
2019-04-06T08:55:03.745Z,95773.78
2019-04-06T08:56:39.338Z,95773.60
2019-04-06T08:58:15.595Z,95777.24
2019-04-06T08:59:51.339Z,95778.44
2019-04-06T09:01:31.886Z,95785.41
2019-04-06T09:03:11.719Z,95784.88
2019-04-06T09:04:51.914Z,95789.13
2019-04-06T09:06:27.758Z,95790.53
2019-04-06T09:08:03.271Z,95788.88
2019-04-06T09:09:39.028Z,95791.14
2019-04-06T09:11:14.412Z,95800.88
2019-04-06T09:12:50.399Z,95796.98
2019-04-06T09:14:28.879Z,95787.97
2019-04-06T09:16:04.528Z,95789.48
2019-04-06T09:17:42.418Z,95786.09
2019-04-06T09:19:21.280Z,95786.61
2019-04-06T09:20:56.912Z,95778.16
2019-04-06T09:22:32.413Z,95771.11
2019-04-06T09:24:08.124Z,95761.29
2019-04-06T09:25:45.774Z,95769.03
2019-04-06T09:27:21.328Z,95773.00
2019-04-06T09:28:59.978Z,95765.64
2019-04-06T09:30:37.510Z,95762.42
2019-04-06T09:32:22.287Z,95771.30
2019-04-06T09:34:01.590Z,95772.38
2019-04-06T09:35:37.385Z,95774.90
2019-04-06T09:37:12.949Z,95766.48
2019-04-06T09:38:51.486Z,95757.66
2019-04-06T09:40:28.949Z,95762.94
2019-04-06T09:42:10.843Z,95758.00
2019-04-06T09:43:49.638Z,95749.72
2019-04-06T09:45:51.589Z,95755.39
2019-04-06T09:47:44.703Z,95753.58
2019-04-06T09:49:34.727Z,95746.73
2019-04-06T09:51:29.519Z,95753.63
2019-04-06T09:53:39.300Z,95746.31
2019-04-06T09:55:41.646Z,95741.72
2019-04-06T09:57:36.400Z,95748.37
2019-04-06T09:59:34.593Z,95744.88
2019-04-06T10:01:37.954Z,95740.27
2019-04-06T10:03:47.393Z,95743.98
2019-04-06T10:05:47.285Z,95739.56
2019-04-06T10:07:39.871Z,95735.04
2019-04-06T10:09:47.835Z,95734.13
2019-04-06T10:11:55.421Z,95737.15
2019-04-06T10:13:58.607Z,95731.91
2019-04-06T10:15:55.392Z,95730.13
2019-04-06T10:17:58.879Z,95725.63
2019-04-06T10:19:44.425Z,95734.57
2019-04-06T10:21:41.097Z,95731.51
2019-04-06T10:23:35.290Z,95731.58
2019-04-06T10:25:37.545Z,95735.81
2019-04-06T10:27:25.310Z,95737.05
2019-04-06T10:29:21.829Z,95734.03
2019-04-06T10:31:16.449Z,95735.44
2019-04-06T10:33:20.202Z,95735.19
2019-04-06T10:35:17.390Z,95735.57
2019-04-06T10:37:01.615Z,95736.17
2019-04-06T10:39:01.390Z,95736.52
2019-04-06T10:41:08.088Z,95731.73
2019-04-06T10:42:57.918Z,95734.24
2019-04-06T10:45:19.372Z,95733.28
2019-04-06T10:47:28.676Z,95729.38
2019-04-06T10:49:34.008Z,95728.83
2019-04-06T10:51:21.004Z,95724.13
2019-04-06T10:53:16.738Z,95722.33
2019-04-06T10:55:11.744Z,95722.12
2019-04-06T10:57:17.761Z,95721.09
2019-04-06T10:59:10.482Z,95720.25
2019-04-06T11:01:06.815Z,95726.27
2019-04-06T11:02:57.692Z,95718.52
2019-04-06T11:04:58.115Z,95726.01
2019-04-06T11:07:03.101Z,95724.54
2019-04-06T11:09:04.474Z,95718.50
2019-04-06T11:10:56.613Z,95717.88
2019-04-06T11:12:42.330Z,95711.50
2019-04-06T11:14:38.266Z,95718.37
2019-04-06T11:16:33.560Z,95710.37
2019-04-06T11:18:26.257Z,95713.52
2019-04-06T11:20:22.235Z,95714.52
2019-04-06T11:22:17.569Z,95716.14
2019-04-06T11:24:08.535Z,95715.13
2019-04-06T11:26:06.351Z,95715.13
2019-04-06T11:28:05.520Z,95722.80
2019-04-06T11:30:13.565Z,95719.53
2019-04-06T11:31:54.653Z,95720.88
2019-04-06T11:33:55.252Z,95718.27
2019-04-06T11:35:58.473Z,95721.85
2019-04-06T11:37:53.686Z,95712.99
2019-04-06T11:39:56.669Z,95711.94
2019-04-06T11:41:55.665Z,95714.81
2019-04-06T11:43:42.806Z,95713.83
2019-04-06T11:45:42.657Z,95708.77
2019-04-06T11:47:33.086Z,95706.54
2019-04-06T11:49:33.819Z,95707.94
2019-04-06T11:51:36.983Z,95711.33
2019-04-06T11:53:38.705Z,95717.23
2019-04-06T11:55:40.510Z,95706.45
2019-04-06T11:57:42.181Z,95712.09
2019-04-06T11:59:51.536Z,95712.70
2019-04-06T12:01:38.082Z,95718.55
2019-04-06T12:03:25.105Z,95718.83
2019-04-06T12:05:42.401Z,95714.97
2019-04-06T12:07:43.605Z,95715.72
2019-04-06T12:09:45.997Z,95705.64
2019-04-06T12:11:39.625Z,95704.91
2019-04-06T12:13:32.509Z,95695.42
2019-04-06T12:15:27.302Z,95700.83
2019-04-06T12:17:19.454Z,95697.81
2019-04-06T12:19:07.253Z,95699.91
2019-04-06T12:20:50.132Z,95703.30
2019-04-06T12:22:45.613Z,95701.83
2019-04-06T12:24:42.990Z,95700.84
2019-04-06T12:26:43.517Z,95697.70
2019-04-06T12:28:56.223Z,95694.64
2019-04-06T12:30:58.765Z,95700.48
2019-04-06T12:32:57.475Z,95707.84
2019-04-06T12:34:57.703Z,95713.59
2019-04-06T12:36:48.655Z,95720.78
2019-04-06T12:38:32.552Z,95711.45
2019-04-06T12:40:28.707Z,95711.33
2019-04-06T12:42:37.493Z,95704.27
2019-04-06T12:44:46.585Z,95701.61
2019-04-06T12:46:46.526Z,95694.55
2019-04-06T12:49:01.045Z,95699.77
2019-04-06T12:50:57.095Z,95696.84
2019-04-06T12:52:51.424Z,95693.92
2019-04-06T12:54:45.996Z,95691.06
2019-04-06T12:56:53.984Z,95687.09
2019-04-06T12:58:40.913Z,95688.64
2019-04-06T13:00:50.845Z,95681.02
2019-04-06T13:02:48.881Z,95681.98
2019-04-06T13:04:52.512Z,95674.11
2019-04-06T13:06:46.146Z,95674.72
2019-04-06T13:08:55.309Z,95679.83
2019-04-06T13:10:47.478Z,95677.48
2019-04-06T13:12:51.028Z,95680.28
2019-04-06T13:14:57.909Z,95673.53
2019-04-06T13:16:55.309Z,95669.98
2019-04-06T13:18:56.827Z,95666.81
2019-04-06T13:20:56.835Z,95677.05
2019-04-06T13:22:52.494Z,95668.29
2019-04-06T13:24:58.737Z,95670.74
2019-04-06T13:26:44.646Z,95677.55
2019-04-06T13:28:33.829Z,95680.28
2019-04-06T13:30:34.415Z,95672.25
2019-04-06T13:32:27.815Z,95671.09
2019-04-06T13:34:37.172Z,95674.29
2019-04-06T13:36:27.401Z,95670.95
2019-04-06T13:38:39.368Z,95667.22
2019-04-06T13:40:37.528Z,95664.58
2019-04-06T13:42:31.042Z,95668.25
2019-04-06T13:44:25.850Z,95670.54
2019-04-06T13:46:29.364Z,95671.81
2019-04-06T13:48:24.942Z,95673.11
2019-04-06T13:50:17.544Z,95670.27
2019-04-06T13:52:28.681Z,95674.80
2019-04-06T13:54:37.617Z,95662.43
2019-04-06T13:56:20.675Z,95659.98
2019-04-06T13:58:18.043Z,95661.95
2019-04-06T14:00:09.917Z,95659.59
2019-04-06T14:01:56.923Z,95669.08
2019-04-06T14:03:49.676Z,95668.33
2019-04-06T14:05:43.662Z,95672.63
2019-04-06T14:07:35.787Z,95669.08
2019-04-06T14:09:30.008Z,95663.50
2019-04-06T14:11:30.728Z,95665.59
2019-04-06T14:13:21.222Z,95666.12
2019-04-06T14:15:17.130Z,95672.42
2019-04-06T14:17:11.524Z,95661.08
2019-04-06T14:19:08.320Z,95673.74
2019-04-06T14:21:03.380Z,95669.63
2019-04-06T14:23:10.103Z,95672.24
2019-04-06T14:25:24.770Z,95672.78
2019-04-06T14:27:35.462Z,95669.13
2019-04-06T14:29:42.555Z,95670.69
2019-04-06T14:31:41.787Z,95670.20
2019-04-06T14:33:38.771Z,95676.36
2019-04-06T14:35:27.890Z,95674.05
2019-04-06T14:37:22.315Z,95672.67
2019-04-06T14:39:15.291Z,95673.87
2019-04-06T14:41:02.342Z,95673.00
2019-04-06T14:42:49.309Z,95669.21
2019-04-06T14:44:36.280Z,95663.30
2019-04-06T14:46:31.094Z,95664.18
2019-04-06T14:48:14.833Z,95658.90
2019-04-06T14:50:10.169Z,95665.09
2019-04-06T14:51:56.883Z,95663.63
2019-04-06T14:54:09.075Z,95666.39
2019-04-06T14:55:59.349Z,95671.25
2019-04-06T14:58:11.674Z,95662.68
2019-04-06T15:00:06.513Z,95665.52
2019-04-06T15:02:02.525Z,95660.67
2019-04-06T15:03:57.084Z,95662.44
2019-04-06T15:05:52.001Z,95662.81
2019-04-06T15:08:04.708Z,95662.58
2019-04-06T15:09:56.946Z,95668.26
2019-04-06T15:11:47.993Z,95663.25
2019-04-06T15:13:40.112Z,95669.24
2019-04-06T15:15:32.141Z,95668.98
2019-04-06T15:17:31.909Z,95671.02
2019-04-06T15:19:18.638Z,95671.16
2019-04-06T15:21:31.629Z,95670.34
2019-04-06T15:23:31.075Z,95670.20
2019-04-06T15:25:30.073Z,95669.03
2019-04-06T15:27:30.591Z,95664.13
2019-04-06T15:29:33.708Z,95665.38
2019-04-06T15:31:49.890Z,95671.08
2019-04-06T15:33:43.765Z,95663.81
2019-04-06T15:35:39.040Z,95669.33
2019-04-06T15:37:44.552Z,95669.07
2019-04-06T15:39:44.503Z,95672.33
2019-04-06T15:41:54.768Z,95670.70
2019-04-06T15:44:08.304Z,95666.07
2019-04-06T15:46:09.760Z,95670.62
2019-04-06T15:48:07.197Z,95669.15
2019-04-06T15:50:14.382Z,95668.52
2019-04-06T15:52:11.445Z,95666.52
2019-04-06T15:53:56.943Z,95662.39
2019-04-06T15:55:47.327Z,95661.72
2019-04-06T15:57:46.486Z,95662.34
2019-04-06T15:59:53.231Z,95660.38
2019-04-06T16:01:42.946Z,95670.49
2019-04-06T16:03:38.237Z,95664.36
2019-04-06T16:05:22.606Z,95669.49
2019-04-06T16:07:14.077Z,95669.11
2019-04-06T16:09:08.456Z,95669.36
2019-04-06T16:11:09.852Z,95663.84
2019-04-06T16:13:05.511Z,95664.47
2019-04-06T16:15:05.278Z,95656.05
2019-04-06T16:16:45.474Z,95654.53
2019-04-06T16:18:42.922Z,95653.66
2019-04-06T16:20:38.385Z,95652.03
2019-04-06T16:22:38.839Z,95656.75
2019-04-06T16:24:38.741Z,95664.06
2019-04-06T16:26:29.157Z,95649.61
2019-04-06T16:28:22.141Z,95661.80
2019-04-06T16:30:07.179Z,95659.55
2019-04-06T16:32:12.374Z,95662.59
2019-04-06T16:34:09.466Z,95654.70
2019-04-06T16:36:18.777Z,95657.22
2019-04-06T16:38:18.924Z,95658.00
2019-04-06T16:40:26.787Z,95657.37
2019-04-06T16:42:17.046Z,95651.74
2019-04-06T16:44:03.858Z,95650.23
2019-04-06T16:45:56.013Z,95651.50
2019-04-06T16:47:42.736Z,95656.16
2019-04-06T16:49:46.956Z,95655.66
2019-04-06T16:51:44.398Z,95656.44
2019-04-06T16:53:55.631Z,95651.55
2019-04-06T16:55:49.148Z,95651.05
2019-04-06T16:58:00.413Z,95645.07
2019-04-06T16:59:51.132Z,95646.54
2019-04-06T17:01:45.877Z,95643.91
2019-04-06T17:03:39.639Z,95653.06
2019-04-06T17:05:38.758Z,95641.55
2019-04-06T17:07:32.775Z,95650.05
2019-04-06T17:09:34.214Z,95645.92
2019-04-06T17:11:33.700Z,95648.20
2019-04-06T17:13:34.557Z,95649.92
2019-04-06T17:15:38.872Z,95654.19
2019-04-06T17:17:34.116Z,95647.45
2019-04-06T17:19:34.280Z,95650.95
2019-04-06T17:21:50.154Z,95643.05
2019-04-06T17:24:03.481Z,95650.20
2019-04-06T17:26:15.785Z,95643.95
2019-04-06T17:28:36.750Z,95643.45
2019-04-06T17:30:52.577Z,95646.20
2019-04-06T17:32:56.061Z,95646.43
2019-04-06T17:34:56.681Z,95642.69
2019-04-06T17:36:55.928Z,95643.19
2019-04-06T17:38:50.695Z,95646.69
2019-04-06T17:40:45.058Z,95637.81
2019-04-06T17:42:33.896Z,95636.03
2019-04-06T17:44:30.361Z,95639.75
2019-04-06T17:46:28.031Z,95641.59
2019-04-06T17:48:26.660Z,95643.82
2019-04-06T17:50:31.032Z,95643.63
2019-04-06T17:52:41.621Z,95651.44
2019-04-06T17:54:48.036Z,95648.64
2019-04-06T17:56:54.736Z,95652.53
2019-04-06T17:58:49.942Z,95650.56
2019-04-06T18:00:42.791Z,95652.77
2019-04-06T18:02:56.237Z,95648.44
2019-04-06T18:04:49.030Z,95651.94
2019-04-06T18:06:55.620Z,95654.79
2019-04-06T18:08:57.267Z,95658.86
2019-04-06T18:10:50.739Z,95656.98
2019-04-06T18:12:36.051Z,95657.97
2019-04-06T18:14:20.018Z,95667.75
2019-04-06T18:15:55.945Z,95666.12
2019-04-06T18:17:31.327Z,95666.10
2019-04-06T18:19:11.346Z,95670.08
2019-04-06T18:20:53.037Z,95666.88
2019-04-06T18:22:29.973Z,95668.24
2019-04-06T18:24:06.257Z,95665.09
2019-04-06T18:25:43.891Z,95665.17
2019-04-06T18:27:22.710Z,95669.53
2019-04-06T18:28:58.660Z,95666.31
2019-04-06T18:30:36.074Z,95676.92
2019-04-06T18:32:30.440Z,95674.24
2019-04-06T18:34:09.428Z,95672.67
2019-04-06T18:35:47.417Z,95670.69
2019-04-06T18:37:43.271Z,95668.14
2019-04-06T18:39:24.226Z,95672.30
2019-04-06T18:42:54.430Z,95677.56
2019-04-06T18:44:31.155Z,95674.69
2019-04-06T18:46:16.065Z,95675.21
2019-04-06T18:47:55.756Z,95679.03
2019-04-06T18:49:35.174Z,95687.50
2019-04-06T18:51:19.247Z,95683.41
2019-04-06T18:52:59.175Z,95686.22
2019-04-06T18:54:33.715Z,95687.77
2019-04-06T18:56:14.274Z,95685.83
2019-04-06T18:57:51.668Z,95687.87
2019-04-06T18:59:30.197Z,95681.05
2019-04-06T19:01:21.466Z,95682.59
2019-04-06T19:03:14.701Z,95680.72
2019-04-06T19:04:49.837Z,95684.14
2019-04-06T19:06:34.697Z,95690.43
2019-04-06T19:08:17.595Z,95690.22
2019-04-06T19:10:01.806Z,95686.98
2019-04-06T19:11:37.207Z,95692.34
2019-04-06T19:13:31.226Z,95694.72
2019-04-06T19:15:18.703Z,95697.08
2019-04-06T19:16:55.004Z,95697.77
2019-04-06T19:18:38.658Z,95705.88
2019-04-06T19:20:14.875Z,95696.81
2019-04-06T19:21:51.673Z,95697.48
2019-04-06T19:23:27.769Z,95702.98
2019-04-06T19:25:05.182Z,95702.60
2019-04-06T19:26:46.012Z,95700.51
2019-04-06T19:28:22.554Z,95702.66
2019-04-06T19:30:00.344Z,95703.00
2019-04-06T19:31:42.348Z,95707.77
2019-04-06T19:33:22.711Z,95709.79
2019-04-06T19:34:53.623Z,95708.05
2019-04-06T19:36:48.680Z,95709.81
2019-04-06T19:38:23.470Z,95709.72
2019-04-06T19:40:01.673Z,95716.34
2019-04-06T19:41:36.997Z,95710.03
2019-04-06T19:43:17.335Z,95711.58
2019-04-06T19:44:54.760Z,95712.70
2019-04-06T19:46:31.916Z,95717.73
2019-04-06T19:48:12.564Z,95712.55
2019-04-06T19:49:52.569Z,95721.09
2019-04-06T19:51:29.283Z,95722.78
2019-04-06T19:53:11.190Z,95719.45
2019-04-06T19:54:46.889Z,95727.23
2019-04-06T19:56:26.511Z,95724.69
2019-04-06T19:58:09.452Z,95726.99
2019-04-06T19:59:48.096Z,95733.93
2019-04-06T20:01:29.691Z,95732.87
2019-04-06T20:03:06.644Z,95730.48
2019-04-06T20:04:44.923Z,95729.28
2019-04-06T20:06:23.093Z,95735.69
2019-04-06T20:08:03.687Z,95737.04
2019-04-06T20:09:43.284Z,95739.95
2019-04-06T20:11:22.375Z,95738.13
2019-04-06T20:12:59.666Z,95737.53
2019-04-06T20:14:35.386Z,95740.72
2019-04-06T20:17:30.918Z,95740.75
2019-04-06T20:19:12.558Z,95742.27
2019-04-06T20:20:50.511Z,95739.84
2019-04-06T20:23:00.674Z,95747.38
2019-04-06T20:24:48.584Z,95751.47
2019-04-06T20:26:27.645Z,95751.43
2019-04-06T20:28:11.263Z,95753.59
2019-04-06T20:29:50.926Z,95749.49
2019-04-06T20:31:35.083Z,95756.91
2019-04-06T20:33:10.759Z,95752.18
2019-04-06T20:34:46.394Z,95757.97
2019-04-06T20:36:21.878Z,95753.40
2019-04-06T20:38:10.481Z,95755.55
2019-04-06T20:39:50.202Z,95751.61
2019-04-06T20:41:37.460Z,95748.40
2019-04-06T20:43:23.996Z,95732.00
2019-04-06T20:45:21.617Z,95726.66